sensor_id;sensor_type;location;lat;lon;timestamp;temperature;humidity
19164;DHT22;9714;51.208;4.242;2022-12-07T00:01:42;6.40;99.90
19164;DHT22;9714;51.208;4.242;2022-12-07T00:04:12;6.40;99.90
19164;DHT22;9714;51.208;4.242;2022-12-07T00:06:40;6.20;99.90
19164;DHT22;9714;51.208;4.242;2022-12-07T00:09:11;6.30;99.90
19164;DHT22;9714;51.208;4.242;2022-12-07T00:11:40;6.20;99.90
19164;DHT22;9714;51.208;4.242;2022-12-07T00:14:11;6.20;99.90
19164;DHT22;9714;51.208;4.242;2022-12-07T00:16:39;6.20;99.90
19164;DHT22;9714;51.208;4.242;2022-12-07T00:19:06;6.30;99.90
19164;DHT22;9714;51.208;4.242;2022-12-07T00:21:34;6.40;99.90
19164;DHT22;9714;51.208;4.242;2022-12-07T00:24:03;6.40;99.90
19164;DHT22;9714;51.208;4.242;2022-12-07T00:26:33;6.20;99.90
19164;DHT22;9714;51.208;4.242;2022-12-07T00:29:03;5.90;99.90
19164;DHT22;9714;51.208;4.242;2022-12-07T00:31:33;6.10;99.90
19164;DHT22;9714;51.208;4.242;2022-12-07T00:34:04;6.10;99.90
19164;DHT22;9714;51.208;4.242;2022-12-07T00:36:31;6.10;99.90
19164;DHT22;9714;51.208;4.242;2022-12-07T00:38:59;6.00;99.90
19164;DHT22;9714;51.208;4.242;2022-12-07T00:41:28;6.10;99.90
19164;DHT22;9714;51.208;4.242;2022-12-07T00:43:56;6.00;99.90
19164;DHT22;9714;51.208;4.242;2022-12-07T00:46:24;5.90;99.90
19164;DHT22;9714;51.208;4.242;2022-12-07T00:48:54;6.00;99.90
19164;DHT22;9714;51.208;4.242;2022-12-07T00:51:23;6.30;99.90
19164;DHT22;9714;51.208;4.242;2022-12-07T00:53:50;6.40;99.90
19164;DHT22;9714;51.208;4.242;2022-12-07T00:56:22;6.50;99.90
19164;DHT22;9714;51.208;4.242;2022-12-07T00:58:50;6.50;99.90
19164;DHT22;9714;51.208;4.242;2022-12-07T01:01:17;6.50;99.90
19164;DHT22;9714;51.208;4.242;2022-12-07T01:03:44;6.40;99.90
19164;DHT22;9714;51.208;4.242;2022-12-07T01:06:15;6.50;99.90
19164;DHT22;9714;51.208;4.242;2022-12-07T01:08:44;6.30;99.90
19164;DHT22;9714;51.208;4.242;2022-12-07T01:11:13;6.10;99.90
19164;DHT22;9714;51.208;4.242;2022-12-07T01:13:44;5.90;99.90
19164;DHT22;9714;51.208;4.242;2022-12-07T01:16:12;5.80;99.90
19164;DHT22;9714;51.208;4.242;2022-12-07T01:18:40;6.00;99.90
19164;DHT22;9714;51.208;4.242;2022-12-07T01:21:09;6.30;99.90
19164;DHT22;9714;51.208;4.242;2022-12-07T01:23:39;6.40;99.90
19164;DHT22;9714;51.208;4.242;2022-12-07T01:26:08;6.30;99.90
19164;DHT22;9714;51.208;4.242;2022-12-07T01:28:37;6.30;99.90
19164;DHT22;9714;51.208;4.242;2022-12-07T01:31:06;6.30;99.90
19164;DHT22;9714;51.208;4.242;2022-12-07T01:33:35;6.00;99.90
19164;DHT22;9714;51.208;4.242;2022-12-07T01:36:04;6.00;99.90
19164;DHT22;9714;51.208;4.242;2022-12-07T01:38:32;5.90;99.90
19164;DHT22;9714;51.208;4.242;2022-12-07T01:41:01;5.90;99.90
19164;DHT22;9714;51.208;4.242;2022-12-07T01:43:33;5.70;99.90
19164;DHT22;9714;51.208;4.242;2022-12-07T01:46:01;6.00;99.90
19164;DHT22;9714;51.208;4.242;2022-12-07T01:48:31;6.20;99.90
19164;DHT22;9714;51.208;4.242;2022-12-07T01:51:01;6.10;99.90
19164;DHT22;9714;51.208;4.242;2022-12-07T01:53:32;6.00;99.90
19164;DHT22;9714;51.208;4.242;2022-12-07T01:56:02;5.90;99.90
19164;DHT22;9714;51.208;4.242;2022-12-07T01:58:30;6.00;99.90
19164;DHT22;9714;51.208;4.242;2022-12-07T02:00:58;6.20;99.90
19164;DHT22;9714;51.208;4.242;2022-12-07T02:03:32;6.10;99.90
19164;DHT22;9714;51.208;4.242;2022-12-07T02:06:01;6.30;99.90
19164;DHT22;9714;51.208;4.242;2022-12-07T02:08:29;6.50;99.90
19164;DHT22;9714;51.208;4.242;2022-12-07T02:10:56;6.60;99.90
19164;DHT22;9714;51.208;4.242;2022-12-07T02:13:26;6.70;99.90
19164;DHT22;9714;51.208;4.242;2022-12-07T02:16:20;6.80;99.90
19164;DHT22;9714;51.208;4.242;2022-12-07T02:18:58;6.70;99.90
19164;DHT22;9714;51.208;4.242;2022-12-07T02:21:37;6.60;99.90
19164;DHT22;9714;51.208;4.242;2022-12-07T02:24:35;6.50;99.90
19164;DHT22;9714;51.208;4.242;2022-12-07T02:27:32;6.10;99.90
19164;DHT22;9714;51.208;4.242;2022-12-07T02:30:06;6.30;99.90
19164;DHT22;9714;51.208;4.242;2022-12-07T02:32:42;6.20;99.90
19164;DHT22;9714;51.208;4.242;2022-12-07T02:35:12;6.30;99.90
19164;DHT22;9714;51.208;4.242;2022-12-07T02:37:49;6.40;99.90
19164;DHT22;9714;51.208;4.242;2022-12-07T02:40:22;6.50;99.90
19164;DHT22;9714;51.208;4.242;2022-12-07T02:42:55;6.60;99.90
19164;DHT22;9714;51.208;4.242;2022-12-07T02:45:27;6.60;99.90
19164;DHT22;9714;51.208;4.242;2022-12-07T02:47:58;6.40;99.90
19164;DHT22;9714;51.208;4.242;2022-12-07T02:50:26;6.50;99.90
19164;DHT22;9714;51.208;4.242;2022-12-07T02:52:53;6.30;99.90
19164;DHT22;9714;51.208;4.242;2022-12-07T02:55:25;6.30;99.90
19164;DHT22;9714;51.208;4.242;2022-12-07T02:58:11;6.20;99.90
19164;DHT22;9714;51.208;4.242;2022-12-07T03:00:52;6.20;99.90
19164;DHT22;9714;51.208;4.242;2022-12-07T03:03:23;6.20;99.90
19164;DHT22;9714;51.208;4.242;2022-12-07T03:06:00;6.40;99.90
19164;DHT22;9714;51.208;4.242;2022-12-07T03:08:37;6.30;99.90
19164;DHT22;9714;51.208;4.242;2022-12-07T03:11:09;6.30;99.90
19164;DHT22;9714;51.208;4.242;2022-12-07T03:13:40;6.40;99.90
19164;DHT22;9714;51.208;4.242;2022-12-07T03:16:14;6.40;99.90
19164;DHT22;9714;51.208;4.242;2022-12-07T03:18:46;6.10;99.90
19164;DHT22;9714;51.208;4.242;2022-12-07T03:21:22;5.90;99.90
19164;DHT22;9714;51.208;4.242;2022-12-07T03:23:56;5.60;99.90
19164;DHT22;9714;51.208;4.242;2022-12-07T03:26:32;5.70;99.90
19164;DHT22;9714;51.208;4.242;2022-12-07T03:29:05;5.70;99.90
19164;DHT22;9714;51.208;4.242;2022-12-07T03:31:39;5.70;99.90
19164;DHT22;9714;51.208;4.242;2022-12-07T03:34:11;5.60;99.90
19164;DHT22;9714;51.208;4.242;2022-12-07T03:36:43;5.60;99.90
19164;DHT22;9714;51.208;4.242;2022-12-07T03:39:19;5.80;99.90
19164;DHT22;9714;51.208;4.242;2022-12-07T03:41:50;5.90;99.90
19164;DHT22;9714;51.208;4.242;2022-12-07T03:44:20;6.00;99.90
19164;DHT22;9714;51.208;4.242;2022-12-07T03:46:55;6.10;99.90
19164;DHT22;9714;51.208;4.242;2022-12-07T03:49:26;6.20;99.90
19164;DHT22;9714;51.208;4.242;2022-12-07T03:51:57;6.40;99.90
19164;DHT22;9714;51.208;4.242;2022-12-07T03:54:32;6.50;99.90
19164;DHT22;9714;51.208;4.242;2022-12-07T03:57:02;6.60;99.90
19164;DHT22;9714;51.208;4.242;2022-12-07T03:59:31;6.40;99.90
19164;DHT22;9714;51.208;4.242;2022-12-07T04:02:04;6.20;99.90
19164;DHT22;9714;51.208;4.242;2022-12-07T04:04:32;6.10;99.90
19164;DHT22;9714;51.208;4.242;2022-12-07T04:06:59;6.30;99.90
19164;DHT22;9714;51.208;4.242;2022-12-07T04:09:26;6.30;99.90
19164;DHT22;9714;51.208;4.242;2022-12-07T04:11:53;6.10;99.90
19164;DHT22;9714;51.208;4.242;2022-12-07T04:14:20;5.80;99.90
19164;DHT22;9714;51.208;4.242;2022-12-07T04:16:50;5.80;99.90
19164;DHT22;9714;51.208;4.242;2022-12-07T04:19:22;5.70;99.90
19164;DHT22;9714;51.208;4.242;2022-12-07T04:21:50;5.50;99.90
19164;DHT22;9714;51.208;4.242;2022-12-07T04:24:18;5.60;99.90
19164;DHT22;9714;51.208;4.242;2022-12-07T04:26:45;5.90;99.90
19164;DHT22;9714;51.208;4.242;2022-12-07T04:29:19;5.90;99.90
19164;DHT22;9714;51.208;4.242;2022-12-07T04:31:49;5.60;99.90
19164;DHT22;9714;51.208;4.242;2022-12-07T04:34:17;5.30;99.90
19164;DHT22;9714;51.208;4.242;2022-12-07T04:36:46;5.10;99.90
19164;DHT22;9714;51.208;4.242;2022-12-07T04:39:18;5.00;99.90
19164;DHT22;9714;51.208;4.242;2022-12-07T04:41:46;5.10;99.90
19164;DHT22;9714;51.208;4.242;2022-12-07T04:44:14;5.30;99.90
19164;DHT22;9714;51.208;4.242;2022-12-07T04:46:42;5.20;99.90
19164;DHT22;9714;51.208;4.242;2022-12-07T04:49:09;5.30;99.90
19164;DHT22;9714;51.208;4.242;2022-12-07T04:51:37;5.30;99.90
19164;DHT22;9714;51.208;4.242;2022-12-07T04:54:05;5.20;99.90
19164;DHT22;9714;51.208;4.242;2022-12-07T04:56:34;5.20;99.90
19164;DHT22;9714;51.208;4.242;2022-12-07T04:59:02;5.20;99.90
19164;DHT22;9714;51.208;4.242;2022-12-07T05:01:33;5.30;99.90
19164;DHT22;9714;51.208;4.242;2022-12-07T05:04:00;5.30;99.90
19164;DHT22;9714;51.208;4.242;2022-12-07T05:06:27;5.50;99.90
19164;DHT22;9714;51.208;4.242;2022-12-07T05:08:56;5.60;99.90
19164;DHT22;9714;51.208;4.242;2022-12-07T05:11:26;5.60;99.90
19164;DHT22;9714;51.208;4.242;2022-12-07T05:14:10;6.20;99.90
19164;DHT22;9714;51.208;4.242;2022-12-07T05:16:38;5.90;99.90
19164;DHT22;9714;51.208;4.242;2022-12-07T05:19:07;5.70;99.90
19164;DHT22;9714;51.208;4.242;2022-12-07T05:21:34;5.80;99.90
19164;DHT22;9714;51.208;4.242;2022-12-07T05:24:01;5.90;99.90
19164;DHT22;9714;51.208;4.242;2022-12-07T05:26:31;6.10;99.90
19164;DHT22;9714;51.208;4.242;2022-12-07T05:28:58;6.30;99.90
19164;DHT22;9714;51.208;4.242;2022-12-07T05:31:27;6.00;99.90
19164;DHT22;9714;51.208;4.242;2022-12-07T05:33:54;5.90;99.90
19164;DHT22;9714;51.208;4.242;2022-12-07T05:36:23;5.90;99.90
19164;DHT22;9714;51.208;4.242;2022-12-07T05:38:51;5.80;99.90
19164;DHT22;9714;51.208;4.242;2022-12-07T05:41:19;5.80;99.90
19164;DHT22;9714;51.208;4.242;2022-12-07T05:44:05;5.80;99.90
19164;DHT22;9714;51.208;4.242;2022-12-07T05:46:32;5.80;99.90
19164;DHT22;9714;51.208;4.242;2022-12-07T05:48:59;5.70;99.90
19164;DHT22;9714;51.208;4.242;2022-12-07T05:51:27;5.80;99.90
19164;DHT22;9714;51.208;4.242;2022-12-07T05:53:56;6.00;99.90
19164;DHT22;9714;51.208;4.242;2022-12-07T05:56:24;6.10;99.90
19164;DHT22;9714;51.208;4.242;2022-12-07T05:58:55;6.00;99.90
19164;DHT22;9714;51.208;4.242;2022-12-07T06:02:03;5.90;99.90
19164;DHT22;9714;51.208;4.242;2022-12-07T06:04:33;6.10;99.90
19164;DHT22;9714;51.208;4.242;2022-12-07T06:07:00;5.90;99.90
19164;DHT22;9714;51.208;4.242;2022-12-07T06:09:29;6.00;99.90
19164;DHT22;9714;51.208;4.242;2022-12-07T06:11:58;5.80;99.90
19164;DHT22;9714;51.208;4.242;2022-12-07T06:14:42;5.60;99.90
19164;DHT22;9714;51.208;4.242;2022-12-07T06:17:11;5.60;99.90
19164;DHT22;9714;51.208;4.242;2022-12-07T06:19:39;5.50;99.90
19164;DHT22;9714;51.208;4.242;2022-12-07T06:22:06;5.60;99.90
19164;DHT22;9714;51.208;4.242;2022-12-07T06:24:35;5.60;99.90
19164;DHT22;9714;51.208;4.242;2022-12-07T06:27:08;5.70;99.90
19164;DHT22;9714;51.208;4.242;2022-12-07T06:29:36;5.90;99.90
19164;DHT22;9714;51.208;4.242;2022-12-07T06:32:03;5.70;99.90
19164;DHT22;9714;51.208;4.242;2022-12-07T06:34:35;5.60;99.90
19164;DHT22;9714;51.208;4.242;2022-12-07T06:37:02;5.80;99.90
19164;DHT22;9714;51.208;4.242;2022-12-07T06:39:34;6.10;99.90
19164;DHT22;9714;51.208;4.242;2022-12-07T06:42:03;6.50;99.90
19164;DHT22;9714;51.208;4.242;2022-12-07T06:44:30;6.30;99.90
19164;DHT22;9714;51.208;4.242;2022-12-07T06:46:57;6.10;99.90
19164;DHT22;9714;51.208;4.242;2022-12-07T06:49:24;5.90;99.90
19164;DHT22;9714;51.208;4.242;2022-12-07T06:51:52;5.90;99.90
19164;DHT22;9714;51.208;4.242;2022-12-07T06:54:20;5.70;99.90
19164;DHT22;9714;51.208;4.242;2022-12-07T06:56:47;5.50;99.90
19164;DHT22;9714;51.208;4.242;2022-12-07T06:59:20;5.40;99.90
19164;DHT22;9714;51.208;4.242;2022-12-07T07:01:54;5.20;99.90
19164;DHT22;9714;51.208;4.242;2022-12-07T07:04:23;5.10;99.90
19164;DHT22;9714;51.208;4.242;2022-12-07T07:06:51;5.10;99.90
19164;DHT22;9714;51.208;4.242;2022-12-07T07:09:18;5.00;99.90
19164;DHT22;9714;51.208;4.242;2022-12-07T07:11:45;5.00;99.90
19164;DHT22;9714;51.208;4.242;2022-12-07T07:14:14;4.90;99.90
19164;DHT22;9714;51.208;4.242;2022-12-07T07:16:44;4.80;99.90
19164;DHT22;9714;51.208;4.242;2022-12-07T07:19:11;4.80;99.90
19164;DHT22;9714;51.208;4.242;2022-12-07T07:21:38;4.80;99.90
19164;DHT22;9714;51.208;4.242;2022-12-07T07:24:08;4.90;99.90
19164;DHT22;9714;51.208;4.242;2022-12-07T07:26:35;5.10;99.90
19164;DHT22;9714;51.208;4.242;2022-12-07T07:29:02;5.50;99.90
19164;DHT22;9714;51.208;4.242;2022-12-07T07:31:35;5.50;99.90
19164;DHT22;9714;51.208;4.242;2022-12-07T07:34:08;5.60;99.90
19164;DHT22;9714;51.208;4.242;2022-12-07T07:36:35;5.70;99.90
19164;DHT22;9714;51.208;4.242;2022-12-07T07:39:02;5.40;99.90
19164;DHT22;9714;51.208;4.242;2022-12-07T07:41:31;5.50;99.90
19164;DHT22;9714;51.208;4.242;2022-12-07T07:44:02;5.50;99.90
19164;DHT22;9714;51.208;4.242;2022-12-07T07:46:29;5.60;99.90
19164;DHT22;9714;51.208;4.242;2022-12-07T07:48:56;5.50;99.90
19164;DHT22;9714;51.208;4.242;2022-12-07T07:51:24;5.90;99.90
19164;DHT22;9714;51.208;4.242;2022-12-07T07:53:51;5.90;99.90
19164;DHT22;9714;51.208;4.242;2022-12-07T07:56:25;6.00;99.90
19164;DHT22;9714;51.208;4.242;2022-12-07T07:58:54;6.10;99.90
19164;DHT22;9714;51.208;4.242;2022-12-07T08:01:21;6.20;99.90
19164;DHT22;9714;51.208;4.242;2022-12-07T08:03:50;6.20;99.90
19164;DHT22;9714;51.208;4.242;2022-12-07T08:06:18;6.20;99.90
19164;DHT22;9714;51.208;4.242;2022-12-07T08:08:48;6.20;99.90
19164;DHT22;9714;51.208;4.242;2022-12-07T08:11:21;6.10;99.90
19164;DHT22;9714;51.208;4.242;2022-12-07T08:13:55;6.30;99.90
19164;DHT22;9714;51.208;4.242;2022-12-07T08:16:28;6.30;99.90
19164;DHT22;9714;51.208;4.242;2022-12-07T08:18:57;6.50;99.90
19164;DHT22;9714;51.208;4.242;2022-12-07T08:21:25;6.80;99.90
19164;DHT22;9714;51.208;4.242;2022-12-07T08:23:54;6.60;99.90
19164;DHT22;9714;51.208;4.242;2022-12-07T08:26:21;6.40;99.90
19164;DHT22;9714;51.208;4.242;2022-12-07T08:28:52;6.30;99.90
19164;DHT22;9714;51.208;4.242;2022-12-07T08:31:23;6.10;99.90
19164;DHT22;9714;51.208;4.242;2022-12-07T08:33:50;6.10;99.90
19164;DHT22;9714;51.208;4.242;2022-12-07T08:36:20;6.20;99.90
19164;DHT22;9714;51.208;4.242;2022-12-07T08:38:50;6.20;99.90
19164;DHT22;9714;51.208;4.242;2022-12-07T08:41:17;6.40;99.90
19164;DHT22;9714;51.208;4.242;2022-12-07T08:43:45;6.30;99.90
19164;DHT22;9714;51.208;4.242;2022-12-07T08:46:17;6.20;99.90
19164;DHT22;9714;51.208;4.242;2022-12-07T08:48:50;6.30;99.90
19164;DHT22;9714;51.208;4.242;2022-12-07T08:51:18;6.30;99.90
19164;DHT22;9714;51.208;4.242;2022-12-07T08:53:48;6.30;99.90
19164;DHT22;9714;51.208;4.242;2022-12-07T08:56:19;6.30;99.90
19164;DHT22;9714;51.208;4.242;2022-12-07T08:58:49;6.50;99.90
19164;DHT22;9714;51.208;4.242;2022-12-07T09:01:19;6.70;99.90
19164;DHT22;9714;51.208;4.242;2022-12-07T09:03:50;6.60;99.90
19164;DHT22;9714;51.208;4.242;2022-12-07T09:06:18;6.80;99.90
19164;DHT22;9714;51.208;4.242;2022-12-07T09:08:51;6.90;99.90
19164;DHT22;9714;51.208;4.242;2022-12-07T09:11:21;6.80;99.90
19164;DHT22;9714;51.208;4.242;2022-12-07T09:13:48;6.80;99.90
19164;DHT22;9714;51.208;4.242;2022-12-07T09:16:15;6.60;99.90
19164;DHT22;9714;51.208;4.242;2022-12-07T09:18:42;6.60;99.90
19164;DHT22;9714;51.208;4.242;2022-12-07T09:21:11;6.80;99.90
19164;DHT22;9714;51.208;4.242;2022-12-07T09:23:38;7.20;99.90
19164;DHT22;9714;51.208;4.242;2022-12-07T09:26:05;7.30;99.90
19164;DHT22;9714;51.208;4.242;2022-12-07T09:28:32;7.50;99.90
19164;DHT22;9714;51.208;4.242;2022-12-07T09:31:00;7.50;99.90
19164;DHT22;9714;51.208;4.242;2022-12-07T09:33:27;7.60;99.90
19164;DHT22;9714;51.208;4.242;2022-12-07T09:35:54;7.70;99.90
19164;DHT22;9714;51.208;4.242;2022-12-07T09:38:23;7.60;99.90
19164;DHT22;9714;51.208;4.242;2022-12-07T09:40:53;7.90;99.90
19164;DHT22;9714;51.208;4.242;2022-12-07T09:43:22;7.80;99.90
19164;DHT22;9714;51.208;4.242;2022-12-07T09:45:52;7.80;99.90
19164;DHT22;9714;51.208;4.242;2022-12-07T09:48:21;8.00;99.90
19164;DHT22;9714;51.208;4.242;2022-12-07T09:50:51;7.90;99.90
19164;DHT22;9714;51.208;4.242;2022-12-07T09:53:26;7.70;99.90
19164;DHT22;9714;51.208;4.242;2022-12-07T09:55:54;7.70;99.90
19164;DHT22;9714;51.208;4.242;2022-12-07T09:58:23;8.00;99.90
19164;DHT22;9714;51.208;4.242;2022-12-07T10:00:53;8.30;99.90
19164;DHT22;9714;51.208;4.242;2022-12-07T10:03:22;8.60;99.90
19164;DHT22;9714;51.208;4.242;2022-12-07T10:05:51;8.80;99.90
19164;DHT22;9714;51.208;4.242;2022-12-07T10:08:19;8.90;99.90
19164;DHT22;9714;51.208;4.242;2022-12-07T10:10:50;9.10;99.90
19164;DHT22;9714;51.208;4.242;2022-12-07T10:13:20;9.10;99.90
19164;DHT22;9714;51.208;4.242;2022-12-07T10:15:51;9.20;99.90
19164;DHT22;9714;51.208;4.242;2022-12-07T10:18:31;9.40;99.90
19164;DHT22;9714;51.208;4.242;2022-12-07T10:21:10;9.40;99.90
19164;DHT22;9714;51.208;4.242;2022-12-07T10:23:39;9.40;99.90
19164;DHT22;9714;51.208;4.242;2022-12-07T10:26:40;9.10;99.90
19164;DHT22;9714;51.208;4.242;2022-12-07T10:29:15;8.90;99.90
19164;DHT22;9714;51.208;4.242;2022-12-07T10:31:45;9.00;99.90
19164;DHT22;9714;51.208;4.242;2022-12-07T10:34:21;9.00;99.90
19164;DHT22;9714;51.208;4.242;2022-12-07T10:36:51;9.10;99.90
19164;DHT22;9714;51.208;4.242;2022-12-07T10:39:20;9.10;99.90
19164;DHT22;9714;51.208;4.242;2022-12-07T10:41:54;9.30;99.90
19164;DHT22;9714;51.208;4.242;2022-12-07T10:44:25;9.20;99.90
19164;DHT22;9714;51.208;4.242;2022-12-07T10:47:04;9.10;99.90
19164;DHT22;9714;51.208;4.242;2022-12-07T10:50:06;9.00;99.90
19164;DHT22;9714;51.208;4.242;2022-12-07T10:52:49;8.80;99.90
19164;DHT22;9714;51.208;4.242;2022-12-07T10:55:25;8.50;99.90
19164;DHT22;9714;51.208;4.242;2022-12-07T10:58:07;8.30;99.90
19164;DHT22;9714;51.208;4.242;2022-12-07T11:00:44;8.20;99.90
19164;DHT22;9714;51.208;4.242;2022-12-07T11:06:29;8.40;99.90
19164;DHT22;9714;51.208;4.242;2022-12-07T11:09:16;8.70;99.90
19164;DHT22;9714;51.208;4.242;2022-12-07T11:11:54;8.60;99.90
19164;DHT22;9714;51.208;4.242;2022-12-07T11:14:35;9.00;99.90
19164;DHT22;9714;51.208;4.242;2022-12-07T11:17:07;9.00;99.90
19164;DHT22;9714;51.208;4.242;2022-12-07T11:20:00;9.10;99.90
19164;DHT22;9714;51.208;4.242;2022-12-07T11:22:36;9.10;99.90
19164;DHT22;9714;51.208;4.242;2022-12-07T11:25:17;9.30;99.90
19164;DHT22;9714;51.208;4.242;2022-12-07T11:27:50;9.50;99.90
19164;DHT22;9714;51.208;4.242;2022-12-07T11:30:21;9.50;99.90
19164;DHT22;9714;51.208;4.242;2022-12-07T11:33:01;9.60;99.90
19164;DHT22;9714;51.208;4.242;2022-12-07T11:38:43;9.60;99.90
19164;DHT22;9714;51.208;4.242;2022-12-07T11:41:22;9.90;99.90
19164;DHT22;9714;51.208;4.242;2022-12-07T11:44:24;10.10;99.90
19164;DHT22;9714;51.208;4.242;2022-12-07T11:46:59;10.70;99.90
19164;DHT22;9714;51.208;4.242;2022-12-07T11:49:40;10.80;99.90
19164;DHT22;9714;51.208;4.242;2022-12-07T11:52:16;11.00;99.90
19164;DHT22;9714;51.208;4.242;2022-12-07T11:54:52;10.80;99.90
19164;DHT22;9714;51.208;4.242;2022-12-07T11:57:25;10.40;99.90
19164;DHT22;9714;51.208;4.242;2022-12-07T11:59:59;10.40;99.90
19164;DHT22;9714;51.208;4.242;2022-12-07T12:02:36;10.70;99.90
19164;DHT22;9714;51.208;4.242;2022-12-07T12:05:13;10.60;99.90
19164;DHT22;9714;51.208;4.242;2022-12-07T12:07:44;10.90;99.90
19164;DHT22;9714;51.208;4.242;2022-12-07T12:10:18;10.90;99.90
19164;DHT22;9714;51.208;4.242;2022-12-07T12:13:09;11.10;99.90
19164;DHT22;9714;51.208;4.242;2022-12-07T12:15:51;11.00;99.90
19164;DHT22;9714;51.208;4.242;2022-12-07T12:18:53;10.80;99.90
19164;DHT22;9714;51.208;4.242;2022-12-07T12:21:28;10.70;99.90
19164;DHT22;9714;51.208;4.242;2022-12-07T12:23:59;10.60;99.90
19164;DHT22;9714;51.208;4.242;2022-12-07T12:26:30;10.30;99.90
19164;DHT22;9714;51.208;4.242;2022-12-07T12:29:05;10.60;99.90
19164;DHT22;9714;51.208;4.242;2022-12-07T12:31:37;10.50;99.90
19164;DHT22;9714;51.208;4.242;2022-12-07T12:34:37;10.00;99.90
19164;DHT22;9714;51.208;4.242;2022-12-07T12:37:39;9.70;99.90
19164;DHT22;9714;51.208;4.242;2022-12-07T12:40:37;9.70;99.90
19164;DHT22;9714;51.208;4.242;2022-12-07T12:46:48;9.70;99.90
19164;DHT22;9714;51.208;4.242;2022-12-07T12:49:54;9.90;99.90
19164;DHT22;9714;51.208;4.242;2022-12-07T12:52:52;9.70;99.90
19164;DHT22;9714;51.208;4.242;2022-12-07T12:58:44;9.70;99.90
19164;DHT22;9714;51.208;4.242;2022-12-07T13:01:45;10.00;99.90
19164;DHT22;9714;51.208;4.242;2022-12-07T13:10:41;8.40;99.90
19164;DHT22;9714;51.208;4.242;2022-12-07T13:13:33;8.10;99.90
19164;DHT22;9714;51.208;4.242;2022-12-07T13:16:40;7.90;99.90
19164;DHT22;9714;51.208;4.242;2022-12-07T13:22:51;8.30;99.90
19164;DHT22;9714;51.208;4.242;2022-12-07T13:28:44;8.50;99.90
19164;DHT22;9714;51.208;4.242;2022-12-07T13:31:41;8.50;99.90
19164;DHT22;9714;51.208;4.242;2022-12-07T13:34:28;8.30;99.90
19164;DHT22;9714;51.208;4.242;2022-12-07T13:36:57;8.40;99.90
19164;DHT22;9714;51.208;4.242;2022-12-07T13:39:33;8.60;99.90
19164;DHT22;9714;51.208;4.242;2022-12-07T13:42:19;8.50;99.90
19164;DHT22;9714;51.208;4.242;2022-12-07T13:45:00;8.50;99.90
19164;DHT22;9714;51.208;4.242;2022-12-07T13:47:34;8.80;99.90
19164;DHT22;9714;51.208;4.242;2022-12-07T13:50:22;8.70;99.90
19164;DHT22;9714;51.208;4.242;2022-12-07T13:52:55;8.90;99.90
19164;DHT22;9714;51.208;4.242;2022-12-07T13:55:35;8.80;99.90
19164;DHT22;9714;51.208;4.242;2022-12-07T13:58:02;8.80;99.90
19164;DHT22;9714;51.208;4.242;2022-12-07T14:00:32;8.80;99.90
19164;DHT22;9714;51.208;4.242;2022-12-07T14:03:01;8.90;99.90
19164;DHT22;9714;51.208;4.242;2022-12-07T14:05:31;8.60;99.90
19164;DHT22;9714;51.208;4.242;2022-12-07T14:08:20;8.70;99.90
19164;DHT22;9714;51.208;4.242;2022-12-07T14:10:55;8.80;99.90
19164;DHT22;9714;51.208;4.242;2022-12-07T14:13:30;8.80;99.90
19164;DHT22;9714;51.208;4.242;2022-12-07T14:16:00;8.90;99.90
19164;DHT22;9714;51.208;4.242;2022-12-07T14:18:29;8.90;99.90
19164;DHT22;9714;51.208;4.242;2022-12-07T14:21:16;8.90;99.90
19164;DHT22;9714;51.208;4.242;2022-12-07T14:23:44;8.90;99.90
19164;DHT22;9714;51.208;4.242;2022-12-07T14:26:12;8.70;99.90
19164;DHT22;9714;51.208;4.242;2022-12-07T14:28:41;8.50;99.90
19164;DHT22;9714;51.208;4.242;2022-12-07T14:31:13;8.60;99.90
19164;DHT22;9714;51.208;4.242;2022-12-07T14:33:42;8.60;99.90
19164;DHT22;9714;51.208;4.242;2022-12-07T14:36:11;8.60;99.90
19164;DHT22;9714;51.208;4.242;2022-12-07T14:38:38;8.50;99.90
19164;DHT22;9714;51.208;4.242;2022-12-07T14:41:13;8.40;99.90
19164;DHT22;9714;51.208;4.242;2022-12-07T14:44:04;8.20;99.90
19164;DHT22;9714;51.208;4.242;2022-12-07T14:46:39;8.10;99.90
19164;DHT22;9714;51.208;4.242;2022-12-07T14:49:08;8.10;99.90
19164;DHT22;9714;51.208;4.242;2022-12-07T14:51:37;8.20;99.90
19164;DHT22;9714;51.208;4.242;2022-12-07T14:54:06;8.20;99.90
19164;DHT22;9714;51.208;4.242;2022-12-07T14:56:38;8.10;99.90
19164;DHT22;9714;51.208;4.242;2022-12-07T14:59:05;7.90;99.90
19164;DHT22;9714;51.208;4.242;2022-12-07T15:01:32;7.60;99.90
19164;DHT22;9714;51.208;4.242;2022-12-07T15:04:00;7.40;99.90
19164;DHT22;9714;51.208;4.242;2022-12-07T15:06:28;7.60;99.90
19164;DHT22;9714;51.208;4.242;2022-12-07T15:08:55;8.00;99.90
19164;DHT22;9714;51.208;4.242;2022-12-07T15:11:22;8.00;99.90
19164;DHT22;9714;51.208;4.242;2022-12-07T15:13:50;8.10;99.90
19164;DHT22;9714;51.208;4.242;2022-12-07T15:16:37;8.00;99.90
19164;DHT22;9714;51.208;4.242;2022-12-07T15:19:13;7.90;99.90
19164;DHT22;9714;51.208;4.242;2022-12-07T15:21:41;7.70;99.90
19164;DHT22;9714;51.208;4.242;2022-12-07T15:24:10;7.70;99.90
19164;DHT22;9714;51.208;4.242;2022-12-07T15:26:38;7.60;99.90
19164;DHT22;9714;51.208;4.242;2022-12-07T15:29:05;7.70;99.90
19164;DHT22;9714;51.208;4.242;2022-12-07T15:31:33;7.90;99.90
19164;DHT22;9714;51.208;4.242;2022-12-07T15:34:01;8.10;99.90
19164;DHT22;9714;51.208;4.242;2022-12-07T15:36:31;8.20;99.90
19164;DHT22;9714;51.208;4.242;2022-12-07T15:39:00;7.90;99.90
19164;DHT22;9714;51.208;4.242;2022-12-07T15:41:27;7.80;99.90
19164;DHT22;9714;51.208;4.242;2022-12-07T15:43:54;7.90;99.90
19164;DHT22;9714;51.208;4.242;2022-12-07T15:46:40;7.80;99.90
19164;DHT22;9714;51.208;4.242;2022-12-07T15:49:26;7.60;99.90
19164;DHT22;9714;51.208;4.242;2022-12-07T15:51:54;7.50;99.90
19164;DHT22;9714;51.208;4.242;2022-12-07T15:54:23;7.60;99.90
19164;DHT22;9714;51.208;4.242;2022-12-07T15:56:50;7.60;99.90
19164;DHT22;9714;51.208;4.242;2022-12-07T15:59:17;7.70;99.90
19164;DHT22;9714;51.208;4.242;2022-12-07T16:01:44;7.90;99.90
19164;DHT22;9714;51.208;4.242;2022-12-07T16:04:11;7.70;99.90
19164;DHT22;9714;51.208;4.242;2022-12-07T16:06:39;7.60;99.90
19164;DHT22;9714;51.208;4.242;2022-12-07T16:09:07;7.80;99.90
19164;DHT22;9714;51.208;4.242;2022-12-07T16:11:34;8.10;99.90
19164;DHT22;9714;51.208;4.242;2022-12-07T16:14:02;7.60;99.90
19164;DHT22;9714;51.208;4.242;2022-12-07T16:16:29;7.50;99.90
19164;DHT22;9714;51.208;4.242;2022-12-07T16:18:57;7.40;99.90
19164;DHT22;9714;51.208;4.242;2022-12-07T16:21:25;7.70;99.90
19164;DHT22;9714;51.208;4.242;2022-12-07T16:23:52;7.80;99.90
19164;DHT22;9714;51.208;4.242;2022-12-07T16:26:21;7.70;99.90
19164;DHT22;9714;51.208;4.242;2022-12-07T16:28:49;7.60;99.90
19164;DHT22;9714;51.208;4.242;2022-12-07T16:31:18;7.50;99.90
19164;DHT22;9714;51.208;4.242;2022-12-07T16:33:45;7.30;99.90
19164;DHT22;9714;51.208;4.242;2022-12-07T16:36:13;7.50;99.90
19164;DHT22;9714;51.208;4.242;2022-12-07T16:38:42;7.50;99.90
19164;DHT22;9714;51.208;4.242;2022-12-07T16:41:10;7.30;99.90
19164;DHT22;9714;51.208;4.242;2022-12-07T16:43:38;7.30;99.90
19164;DHT22;9714;51.208;4.242;2022-12-07T16:46:07;7.40;99.90
19164;DHT22;9714;51.208;4.242;2022-12-07T16:48:35;7.30;99.90
19164;DHT22;9714;51.208;4.242;2022-12-07T16:51:07;7.00;99.90
19164;DHT22;9714;51.208;4.242;2022-12-07T16:53:36;7.10;99.90
19164;DHT22;9714;51.208;4.242;2022-12-07T16:56:05;7.40;99.90
19164;DHT22;9714;51.208;4.242;2022-12-07T16:58:37;7.40;99.90